sensor_id;sensor_type;location;lat;lon;timestamp;temperature;humidity
21944;DHT22;11136;48.778;9.126;2023-06-10T00:01:52;21.90;72.00
21944;DHT22;11136;48.778;9.126;2023-06-10T00:04:20;21.90;72.10
21944;DHT22;11136;48.778;9.126;2023-06-10T00:06:46;21.90;72.20
21944;DHT22;11136;48.778;9.126;2023-06-10T00:09:13;21.80;72.20
21944;DHT22;11136;48.778;9.126;2023-06-10T00:11:40;21.80;72.40
21944;DHT22;11136;48.778;9.126;2023-06-10T00:14:06;21.80;72.70
21944;DHT22;11136;48.778;9.126;2023-06-10T00:16:32;21.70;72.90
21944;DHT22;11136;48.778;9.126;2023-06-10T00:19:03;21.70;73.00
21944;DHT22;11136;48.778;9.126;2023-06-10T00:21:32;21.60;73.20
21944;DHT22;11136;48.778;9.126;2023-06-10T00:24:07;21.60;73.20
21944;DHT22;11136;48.778;9.126;2023-06-10T00:26:35;21.60;73.40
21944;DHT22;11136;48.778;9.126;2023-06-10T00:29:02;21.60;73.70
21944;DHT22;11136;48.778;9.126;2023-06-10T00:31:28;21.50;73.80
21944;DHT22;11136;48.778;9.126;2023-06-10T00:33:53;21.50;73.90
21944;DHT22;11136;48.778;9.126;2023-06-10T00:36:19;21.50;74.00
21944;DHT22;11136;48.778;9.126;2023-06-10T00:38:45;21.50;74.10
21944;DHT22;11136;48.778;9.126;2023-06-10T00:41:10;21.40;74.20
21944;DHT22;11136;48.778;9.126;2023-06-10T00:43:36;21.40;74.40
21944;DHT22;11136;48.778;9.126;2023-06-10T00:46:01;21.40;74.60
21944;DHT22;11136;48.778;9.126;2023-06-10T00:48:27;21.40;74.70
21944;DHT22;11136;48.778;9.126;2023-06-10T00:50:54;21.40;74.90
21944;DHT22;11136;48.778;9.126;2023-06-10T00:53:21;21.10;74.80
21944;DHT22;11136;48.778;9.126;2023-06-10T00:55:48;21.30;75.10
21944;DHT22;11136;48.778;9.126;2023-06-10T00:58:13;21.20;75.20
21944;DHT22;11136;48.778;9.126;2023-06-10T01:00:39;21.20;75.20
21944;DHT22;11136;48.778;9.126;2023-06-10T01:03:05;21.20;75.40
21944;DHT22;11136;48.778;9.126;2023-06-10T01:05:36;21.10;75.50
21944;DHT22;11136;48.778;9.126;2023-06-10T01:08:35;21.10;75.70
21944;DHT22;11136;48.778;9.126;2023-06-10T01:11:08;21.10;76.10
21944;DHT22;11136;48.778;9.126;2023-06-10T01:13:40;21.00;76.00
21944;DHT22;11136;48.778;9.126;2023-06-10T01:16:07;21.00;76.20
21944;DHT22;11136;48.778;9.126;2023-06-10T01:18:33;21.00;76.40
21944;DHT22;11136;48.778;9.126;2023-06-10T01:20:59;21.00;76.70
21944;DHT22;11136;48.778;9.126;2023-06-10T01:23:24;20.90;76.80
21944;DHT22;11136;48.778;9.126;2023-06-10T01:26:00;20.90;76.90
21944;DHT22;11136;48.778;9.126;2023-06-10T01:28:40;20.90;77.20
21944;DHT22;11136;48.778;9.126;2023-06-10T01:31:21;20.90;77.20
21944;DHT22;11136;48.778;9.126;2023-06-10T01:33:53;20.80;77.20
21944;DHT22;11136;48.778;9.126;2023-06-10T01:36:22;20.80;77.20
21944;DHT22;11136;48.778;9.126;2023-06-10T01:38:50;20.70;77.50
21944;DHT22;11136;48.778;9.126;2023-06-10T01:41:18;20.70;77.60
21944;DHT22;11136;48.778;9.126;2023-06-10T01:43:47;20.70;77.90
21944;DHT22;11136;48.778;9.126;2023-06-10T01:46:14;20.70;77.90
21944;DHT22;11136;48.778;9.126;2023-06-10T01:48:41;20.60;78.00
21944;DHT22;11136;48.778;9.126;2023-06-10T01:51:07;20.70;78.20
21944;DHT22;11136;48.778;9.126;2023-06-10T01:53:33;20.60;78.30
21944;DHT22;11136;48.778;9.126;2023-06-10T01:55:58;20.60;78.40
21944;DHT22;11136;48.778;9.126;2023-06-10T01:58:25;20.50;78.50
21944;DHT22;11136;48.778;9.126;2023-06-10T02:00:51;20.50;78.60
21944;DHT22;11136;48.778;9.126;2023-06-10T02:03:16;20.50;79.60
21944;DHT22;11136;48.778;9.126;2023-06-10T02:05:42;20.40;78.90
21944;DHT22;11136;48.778;9.126;2023-06-10T02:08:07;20.40;79.00
21944;DHT22;11136;48.778;9.126;2023-06-10T02:10:33;20.40;79.10
21944;DHT22;11136;48.778;9.126;2023-06-10T02:12:59;20.50;79.40
21944;DHT22;11136;48.778;9.126;2023-06-10T02:15:25;20.30;79.40
21944;DHT22;11136;48.778;9.126;2023-06-10T02:17:52;20.30;79.50
21944;DHT22;11136;48.778;9.126;2023-06-10T02:20:17;20.30;79.70
21944;DHT22;11136;48.778;9.126;2023-06-10T02:22:43;20.20;79.70
21944;DHT22;11136;48.778;9.126;2023-06-10T02:25:09;20.20;79.90
21944;DHT22;11136;48.778;9.126;2023-06-10T02:27:34;20.10;80.10
21944;DHT22;11136;48.778;9.126;2023-06-10T02:30:00;20.10;80.10
21944;DHT22;11136;48.778;9.126;2023-06-10T02:32:25;20.10;80.30
21944;DHT22;11136;48.778;9.126;2023-06-10T02:34:51;20.10;80.60
21944;DHT22;11136;48.778;9.126;2023-06-10T02:37:17;20.10;80.60
21944;DHT22;11136;48.778;9.126;2023-06-10T02:39:43;20.00;80.70
21944;DHT22;11136;48.778;9.126;2023-06-10T02:42:08;20.00;80.80
21944;DHT22;11136;48.778;9.126;2023-06-10T02:44:34;20.00;81.00
21944;DHT22;11136;48.778;9.126;2023-06-10T02:47:00;19.90;81.00
21944;DHT22;11136;48.778;9.126;2023-06-10T02:49:26;19.90;81.20
21944;DHT22;11136;48.778;9.126;2023-06-10T02:51:53;19.90;81.40
21944;DHT22;11136;48.778;9.126;2023-06-10T02:54:20;19.90;81.50
21944;DHT22;11136;48.778;9.126;2023-06-10T02:56:45;19.90;81.60
21944;DHT22;11136;48.778;9.126;2023-06-10T02:59:13;19.80;81.70
21944;DHT22;11136;48.778;9.126;2023-06-10T03:01:39;19.80;81.70
21944;DHT22;11136;48.778;9.126;2023-06-10T03:04:05;19.80;81.90
21944;DHT22;11136;48.778;9.126;2023-06-10T03:06:31;19.80;82.00
21944;DHT22;11136;48.778;9.126;2023-06-10T03:08:59;19.80;82.00
21944;DHT22;11136;48.778;9.126;2023-06-10T03:11:25;19.70;82.10
21944;DHT22;11136;48.778;9.126;2023-06-10T03:13:51;19.70;82.20
21944;DHT22;11136;48.778;9.126;2023-06-10T03:16:17;19.70;82.30
21944;DHT22;11136;48.778;9.126;2023-06-10T03:18:43;19.60;82.40
21944;DHT22;11136;48.778;9.126;2023-06-10T03:21:09;19.60;82.50
21944;DHT22;11136;48.778;9.126;2023-06-10T03:23:35;19.60;82.60
21944;DHT22;11136;48.778;9.126;2023-06-10T03:26:00;19.60;82.60
21944;DHT22;11136;48.778;9.126;2023-06-10T03:28:26;19.60;82.80
21944;DHT22;11136;48.778;9.126;2023-06-10T03:30:51;19.50;82.80
21944;DHT22;11136;48.778;9.126;2023-06-10T03:33:17;19.50;83.00
21944;DHT22;11136;48.778;9.126;2023-06-10T03:35:43;19.50;83.20
21944;DHT22;11136;48.778;9.126;2023-06-10T03:38:08;19.50;83.40
21944;DHT22;11136;48.778;9.126;2023-06-10T03:40:34;19.40;83.40
21944;DHT22;11136;48.778;9.126;2023-06-10T03:43:00;19.40;83.50
21944;DHT22;11136;48.778;9.126;2023-06-10T03:45:26;19.40;83.70
21944;DHT22;11136;48.778;9.126;2023-06-10T03:47:53;19.40;83.70
21944;DHT22;11136;48.778;9.126;2023-06-10T03:50:19;19.40;83.90
21944;DHT22;11136;48.778;9.126;2023-06-10T03:52:45;19.40;84.10
21944;DHT22;11136;48.778;9.126;2023-06-10T03:55:12;19.30;84.20
21944;DHT22;11136;48.778;9.126;2023-06-10T03:57:39;19.30;84.30
21944;DHT22;11136;48.778;9.126;2023-06-10T04:00:05;19.30;84.40
21944;DHT22;11136;48.778;9.126;2023-06-10T04:02:36;19.30;84.70
21944;DHT22;11136;48.778;9.126;2023-06-10T04:05:02;19.30;84.70
21944;DHT22;11136;48.778;9.126;2023-06-10T04:07:27;19.30;85.00
21944;DHT22;11136;48.778;9.126;2023-06-10T04:09:54;19.20;85.00
21944;DHT22;11136;48.778;9.126;2023-06-10T04:12:19;19.20;85.30
21944;DHT22;11136;48.778;9.126;2023-06-10T04:14:45;19.20;85.40
21944;DHT22;11136;48.778;9.126;2023-06-10T04:17:10;19.30;85.60
21944;DHT22;11136;48.778;9.126;2023-06-10T04:19:36;19.20;85.80
21944;DHT22;11136;48.778;9.126;2023-06-10T04:22:02;19.20;85.90
21944;DHT22;11136;48.778;9.126;2023-06-10T04:24:29;19.30;86.10
21944;DHT22;11136;48.778;9.126;2023-06-10T04:26:54;19.30;86.20
21944;DHT22;11136;48.778;9.126;2023-06-10T04:29:20;19.30;86.40
21944;DHT22;11136;48.778;9.126;2023-06-10T04:31:45;19.30;86.80
21944;DHT22;11136;48.778;9.126;2023-06-10T04:34:12;19.30;87.10
21944;DHT22;11136;48.778;9.126;2023-06-10T04:36:38;19.30;87.20
21944;DHT22;11136;48.778;9.126;2023-06-10T04:39:03;19.30;87.40
21944;DHT22;11136;48.778;9.126;2023-06-10T04:41:31;19.30;87.70
21944;DHT22;11136;48.778;9.126;2023-06-10T04:43:56;19.30;87.90
21944;DHT22;11136;48.778;9.126;2023-06-10T04:46:23;19.40;88.20
21944;DHT22;11136;48.778;9.126;2023-06-10T04:48:49;19.40;88.40
21944;DHT22;11136;48.778;9.126;2023-06-10T04:51:15;19.40;88.70
21944;DHT22;11136;48.778;9.126;2023-06-10T04:53:40;19.40;88.60
21944;DHT22;11136;48.778;9.126;2023-06-10T04:56:07;19.40;88.70
21944;DHT22;11136;48.778;9.126;2023-06-10T04:58:33;19.40;88.80
21944;DHT22;11136;48.778;9.126;2023-06-10T05:00:59;19.50;88.90
21944;DHT22;11136;48.778;9.126;2023-06-10T05:03:26;19.50;89.10
21944;DHT22;11136;48.778;9.126;2023-06-10T05:05:51;19.70;89.40
21944;DHT22;11136;48.778;9.126;2023-06-10T05:08:18;19.60;89.40
21944;DHT22;11136;48.778;9.126;2023-06-10T05:10:43;19.50;89.20
21944;DHT22;11136;48.778;9.126;2023-06-10T05:13:09;19.50;89.20
21944;DHT22;11136;48.778;9.126;2023-06-10T05:15:34;19.60;89.50
21944;DHT22;11136;48.778;9.126;2023-06-10T05:18:00;19.60;89.60
21944;DHT22;11136;48.778;9.126;2023-06-10T05:20:27;19.60;89.80
21944;DHT22;11136;48.778;9.126;2023-06-10T05:22:54;19.70;89.70
21944;DHT22;11136;48.778;9.126;2023-06-10T05:25:19;19.70;89.80
21944;DHT22;11136;48.778;9.126;2023-06-10T05:27:45;19.70;90.00
21944;DHT22;11136;48.778;9.126;2023-06-10T05:30:11;19.80;90.00
21944;DHT22;11136;48.778;9.126;2023-06-10T05:32:37;19.80;89.80
21944;DHT22;11136;48.778;9.126;2023-06-10T05:35:02;19.80;89.80
21944;DHT22;11136;48.778;9.126;2023-06-10T05:37:29;19.80;90.00
21944;DHT22;11136;48.778;9.126;2023-06-10T05:39:55;19.80;90.00
21944;DHT22;11136;48.778;9.126;2023-06-10T05:42:21;19.90;90.00
21944;DHT22;11136;48.778;9.126;2023-06-10T05:44:46;20.00;90.10
21944;DHT22;11136;48.778;9.126;2023-06-10T05:47:12;20.00;90.00
21944;DHT22;11136;48.778;9.126;2023-06-10T05:49:37;20.00;90.00
21944;DHT22;11136;48.778;9.126;2023-06-10T05:52:03;20.10;90.00
21944;DHT22;11136;48.778;9.126;2023-06-10T05:54:29;20.10;90.00
21944;DHT22;11136;48.778;9.126;2023-06-10T05:56:56;20.20;89.90
21944;DHT22;11136;48.778;9.126;2023-06-10T05:59:21;20.20;89.80
21944;DHT22;11136;48.778;9.126;2023-06-10T06:01:49;20.30;89.90
21944;DHT22;11136;48.778;9.126;2023-06-10T06:04:16;20.30;89.90
21944;DHT22;11136;48.778;9.126;2023-06-10T06:06:41;20.40;89.90
21944;DHT22;11136;48.778;9.126;2023-06-10T06:09:07;20.40;90.00
21944;DHT22;11136;48.778;9.126;2023-06-10T06:11:34;20.50;90.00
21944;DHT22;11136;48.778;9.126;2023-06-10T06:14:00;20.50;89.90
21944;DHT22;11136;48.778;9.126;2023-06-10T06:16:26;20.50;90.00
21944;DHT22;11136;48.778;9.126;2023-06-10T06:18:51;20.60;90.00
21944;DHT22;11136;48.778;9.126;2023-06-10T06:21:17;20.60;90.00
21944;DHT22;11136;48.778;9.126;2023-06-10T06:23:42;20.70;90.00
21944;DHT22;11136;48.778;9.126;2023-06-10T06:26:08;20.70;90.00
21944;DHT22;11136;48.778;9.126;2023-06-10T06:28:34;20.70;89.80
21944;DHT22;11136;48.778;9.126;2023-06-10T06:30:59;20.80;89.80
21944;DHT22;11136;48.778;9.126;2023-06-10T06:33:25;20.80;89.70
21944;DHT22;11136;48.778;9.126;2023-06-10T06:35:52;20.90;89.60
21944;DHT22;11136;48.778;9.126;2023-06-10T06:38:18;20.90;89.60
21944;DHT22;11136;48.778;9.126;2023-06-10T06:40:43;21.00;89.50
21944;DHT22;11136;48.778;9.126;2023-06-10T06:43:09;21.00;89.40
21944;DHT22;11136;48.778;9.126;2023-06-10T06:45:34;21.10;89.40
21944;DHT22;11136;48.778;9.126;2023-06-10T06:48:00;21.10;89.20
21944;DHT22;11136;48.778;9.126;2023-06-10T06:50:25;21.20;89.20
21944;DHT22;11136;48.778;9.126;2023-06-10T06:52:51;21.20;89.10
21944;DHT22;11136;48.778;9.126;2023-06-10T06:55:17;21.30;88.90
21944;DHT22;11136;48.778;9.126;2023-06-10T06:57:42;21.30;88.80
21944;DHT22;11136;48.778;9.126;2023-06-10T07:00:08;21.30;88.70
21944;DHT22;11136;48.778;9.126;2023-06-10T07:02:35;21.40;89.10
21944;DHT22;11136;48.778;9.126;2023-06-10T07:05:01;21.50;88.10
21944;DHT22;11136;48.778;9.126;2023-06-10T07:07:27;21.50;87.60
21944;DHT22;11136;48.778;9.126;2023-06-10T07:09:52;21.50;87.50
21944;DHT22;11136;48.778;9.126;2023-06-10T07:12:18;21.50;87.50
21944;DHT22;11136;48.778;9.126;2023-06-10T07:14:44;21.60;87.60
21944;DHT22;11136;48.778;9.126;2023-06-10T07:17:09;21.60;87.70
21944;DHT22;11136;48.778;9.126;2023-06-10T07:19:35;21.60;87.50
21944;DHT22;11136;48.778;9.126;2023-06-10T07:22:01;21.70;87.60
21944;DHT22;11136;48.778;9.126;2023-06-10T07:24:26;21.70;87.60
21944;DHT22;11136;48.778;9.126;2023-06-10T07:26:52;21.80;87.30
21944;DHT22;11136;48.778;9.126;2023-06-10T07:29:17;21.80;87.30
21944;DHT22;11136;48.778;9.126;2023-06-10T07:31:43;21.90;87.30
21944;DHT22;11136;48.778;9.126;2023-06-10T07:34:08;21.90;87.30
21944;DHT22;11136;48.778;9.126;2023-06-10T07:36:34;22.00;87.30
21944;DHT22;11136;48.778;9.126;2023-06-10T07:38:59;22.10;87.20
21944;DHT22;11136;48.778;9.126;2023-06-10T07:41:25;22.10;86.90
21944;DHT22;11136;48.778;9.126;2023-06-10T07:43:52;22.20;86.70
21944;DHT22;11136;48.778;9.126;2023-06-10T07:46:20;22.20;86.40
21944;DHT22;11136;48.778;9.126;2023-06-10T07:48:47;22.30;86.40
21944;DHT22;11136;48.778;9.126;2023-06-10T07:51:12;22.30;86.00
21944;DHT22;11136;48.778;9.126;2023-06-10T07:53:38;22.40;85.80
21944;DHT22;11136;48.778;9.126;2023-06-10T07:56:04;22.40;85.70
21944;DHT22;11136;48.778;9.126;2023-06-10T07:58:29;22.50;85.70
21944;DHT22;11136;48.778;9.126;2023-06-10T08:00:55;22.60;85.70
21944;DHT22;11136;48.778;9.126;2023-06-10T08:03:20;22.60;85.30
21944;DHT22;11136;48.778;9.126;2023-06-10T08:05:46;22.70;85.30
21944;DHT22;11136;48.778;9.126;2023-06-10T08:08:12;22.80;85.10
21944;DHT22;11136;48.778;9.126;2023-06-10T08:10:38;23.00;85.20
21944;DHT22;11136;48.778;9.126;2023-06-10T08:13:04;22.90;84.80
21944;DHT22;11136;48.778;9.126;2023-06-10T08:15:29;23.00;84.90
21944;DHT22;11136;48.778;9.126;2023-06-10T08:17:55;23.00;84.60
21944;DHT22;11136;48.778;9.126;2023-06-10T08:20:22;23.10;84.50
21944;DHT22;11136;48.778;9.126;2023-06-10T08:22:47;23.10;84.20
21944;DHT22;11136;48.778;9.126;2023-06-10T08:25:13;23.20;83.80
21944;DHT22;11136;48.778;9.126;2023-06-10T08:27:38;23.20;83.70
21944;DHT22;11136;48.778;9.126;2023-06-10T08:30:04;23.30;83.30
21944;DHT22;11136;48.778;9.126;2023-06-10T08:32:30;23.30;83.20
21944;DHT22;11136;48.778;9.126;2023-06-10T08:34:56;23.40;83.00
21944;DHT22;11136;48.778;9.126;2023-06-10T08:37:21;23.40;82.80
21944;DHT22;11136;48.778;9.126;2023-06-10T08:39:47;23.50;82.20
21944;DHT22;11136;48.778;9.126;2023-06-10T08:42:23;23.50;82.10
21944;DHT22;11136;48.778;9.126;2023-06-10T08:44:53;23.70;82.20
21944;DHT22;11136;48.778;9.126;2023-06-10T08:47:22;23.90;82.30
21944;DHT22;11136;48.778;9.126;2023-06-10T08:49:50;24.20;82.20
21944;DHT22;11136;48.778;9.126;2023-06-10T08:52:19;24.50;80.80
21944;DHT22;11136;48.778;9.126;2023-06-10T08:54:54;24.80;80.10
21944;DHT22;11136;48.778;9.126;2023-06-10T08:57:22;25.10;79.20
21944;DHT22;11136;48.778;9.126;2023-06-10T08:59:48;25.20;78.50
21944;DHT22;11136;48.778;9.126;2023-06-10T09:02:15;25.40;77.50
21944;DHT22;11136;48.778;9.126;2023-06-10T09:04:42;25.60;76.30
21944;DHT22;11136;48.778;9.126;2023-06-10T09:07:08;25.60;75.20
21944;DHT22;11136;48.778;9.126;2023-06-10T09:09:36;25.60;74.60
21944;DHT22;11136;48.778;9.126;2023-06-10T09:12:01;25.50;74.20
21944;DHT22;11136;48.778;9.126;2023-06-10T09:14:27;25.50;74.20
21944;DHT22;11136;48.778;9.126;2023-06-10T09:16:53;25.40;74.20
21944;DHT22;11136;48.778;9.126;2023-06-10T09:19:23;25.40;74.50
21944;DHT22;11136;48.778;9.126;2023-06-10T09:21:49;25.40;74.60
21944;DHT22;11136;48.778;9.126;2023-06-10T09:24:15;25.40;74.10
21944;DHT22;11136;48.778;9.126;2023-06-10T09:26:41;25.40;74.30
21944;DHT22;11136;48.778;9.126;2023-06-10T09:29:08;25.40;74.10
21944;DHT22;11136;48.778;9.126;2023-06-10T09:31:36;25.50;73.50
21944;DHT22;11136;48.778;9.126;2023-06-10T09:34:09;25.60;73.40
21944;DHT22;11136;48.778;9.126;2023-06-10T09:36:36;25.60;73.00
21944;DHT22;11136;48.778;9.126;2023-06-10T09:39:02;25.70;72.70
21944;DHT22;11136;48.778;9.126;2023-06-10T09:41:35;25.80;72.90
21944;DHT22;11136;48.778;9.126;2023-06-10T09:44:01;25.80;72.90
21944;DHT22;11136;48.778;9.126;2023-06-10T09:46:31;26.00;72.90
21944;DHT22;11136;48.778;9.126;2023-06-10T09:48:59;26.00;72.10
21944;DHT22;11136;48.778;9.126;2023-06-10T09:51:26;26.10;71.30
21944;DHT22;11136;48.778;9.126;2023-06-10T09:53:51;26.20;71.10
21944;DHT22;11136;48.778;9.126;2023-06-10T09:56:18;26.30;70.90
21944;DHT22;11136;48.778;9.126;2023-06-10T09:58:45;26.40;70.90
21944;DHT22;11136;48.778;9.126;2023-06-10T10:01:12;26.40;70.70
21944;DHT22;11136;48.778;9.126;2023-06-10T10:03:46;26.50;70.80
21944;DHT22;11136;48.778;9.126;2023-06-10T10:06:12;26.70;70.50
21944;DHT22;11136;48.778;9.126;2023-06-10T10:08:39;26.60;70.10
21944;DHT22;11136;48.778;9.126;2023-06-10T10:11:04;26.70;70.10
21944;DHT22;11136;48.778;9.126;2023-06-10T10:13:33;26.70;70.00
21944;DHT22;11136;48.778;9.126;2023-06-10T10:16:03;26.80;70.00
21944;DHT22;11136;48.778;9.126;2023-06-10T10:18:32;26.80;70.00
21944;DHT22;11136;48.778;9.126;2023-06-10T10:21:01;26.80;69.80
21944;DHT22;11136;48.778;9.126;2023-06-10T10:23:52;27.00;69.90
21944;DHT22;11136;48.778;9.126;2023-06-10T10:26:18;27.00;69.60
21944;DHT22;11136;48.778;9.126;2023-06-10T10:28:55;27.10;70.00
21944;DHT22;11136;48.778;9.126;2023-06-10T10:31:27;27.10;69.80
21944;DHT22;11136;48.778;9.126;2023-06-10T10:33:58;27.20;69.80
21944;DHT22;11136;48.778;9.126;2023-06-10T10:36:25;27.30;69.30
21944;DHT22;11136;48.778;9.126;2023-06-10T10:38:50;27.30;69.50
21944;DHT22;11136;48.778;9.126;2023-06-10T10:41:17;27.50;68.50
21944;DHT22;11136;48.778;9.126;2023-06-10T10:43:44;27.50;68.60
21944;DHT22;11136;48.778;9.126;2023-06-10T10:46:14;27.60;68.10
21944;DHT22;11136;48.778;9.126;2023-06-10T10:48:42;27.70;67.80
21944;DHT22;11136;48.778;9.126;2023-06-10T10:51:08;28.00;67.60
21944;DHT22;11136;48.778;9.126;2023-06-10T10:53:34;27.80;67.40
21944;DHT22;11136;48.778;9.126;2023-06-10T10:56:12;27.90;67.60
21944;DHT22;11136;48.778;9.126;2023-06-10T10:58:38;27.90;67.30
21944;DHT22;11136;48.778;9.126;2023-06-10T11:01:14;27.90;67.20
21944;DHT22;11136;48.778;9.126;2023-06-10T11:03:44;27.80;66.90
21944;DHT22;11136;48.778;9.126;2023-06-10T11:06:14;27.80;67.30
21944;DHT22;11136;48.778;9.126;2023-06-10T11:11:27;27.70;66.80
21944;DHT22;11136;48.778;9.126;2023-06-10T11:14:29;27.70;66.80
21944;DHT22;11136;48.778;9.126;2023-06-10T11:16:57;27.90;66.40
21944;DHT22;11136;48.778;9.126;2023-06-10T11:19:36;27.70;66.20
21944;DHT22;11136;48.778;9.126;2023-06-10T11:22:06;27.70;65.90
21944;DHT22;11136;48.778;9.126;2023-06-10T11:24:32;27.90;65.70
21944;DHT22;11136;48.778;9.126;2023-06-10T11:27:20;27.90;65.50
21944;DHT22;11136;48.778;9.126;2023-06-10T11:32:22;28.10;65.60
21944;DHT22;11136;48.778;9.126;2023-06-10T11:34:54;28.20;65.20
21944;DHT22;11136;48.778;9.126;2023-06-10T11:37:21;28.30;64.30
21944;DHT22;11136;48.778;9.126;2023-06-10T11:39:46;28.50;63.80
21944;DHT22;11136;48.778;9.126;2023-06-10T11:42:12;28.60;63.30
21944;DHT22;11136;48.778;9.126;2023-06-10T11:44:38;28.80;63.60
21944;DHT22;11136;48.778;9.126;2023-06-10T11:47:04;28.90;63.40
21944;DHT22;11136;48.778;9.126;2023-06-10T11:49:29;29.00;62.60
21944;DHT22;11136;48.778;9.126;2023-06-10T11:51:55;29.20;62.20
21944;DHT22;11136;48.778;9.126;2023-06-10T11:54:21;29.20;61.70
21944;DHT22;11136;48.778;9.126;2023-06-10T11:56:47;29.30;61.50
21944;DHT22;11136;48.778;9.126;2023-06-10T11:59:13;29.30;61.30
21944;DHT22;11136;48.778;9.126;2023-06-10T12:01:44;29.40;62.10
21944;DHT22;11136;48.778;9.126;2023-06-10T12:04:12;29.50;61.10
21944;DHT22;11136;48.778;9.126;2023-06-10T12:06:48;29.70;61.00
21944;DHT22;11136;48.778;9.126;2023-06-10T12:09:15;29.80;60.50
21944;DHT22;11136;48.778;9.126;2023-06-10T12:11:43;29.90;59.60
21944;DHT22;11136;48.778;9.126;2023-06-10T12:14:09;29.90;59.20
21944;DHT22;11136;48.778;9.126;2023-06-10T12:16:34;29.80;59.00
21944;DHT22;11136;48.778;9.126;2023-06-10T12:19:04;29.70;58.80
21944;DHT22;11136;48.778;9.126;2023-06-10T12:21:32;29.70;59.40
21944;DHT22;11136;48.778;9.126;2023-06-10T12:24:02;29.70;58.80
21944;DHT22;11136;48.778;9.126;2023-06-10T12:26:35;29.80;58.60
21944;DHT22;11136;48.778;9.126;2023-06-10T12:29:11;29.90;58.70
21944;DHT22;11136;48.778;9.126;2023-06-10T12:32:00;30.10;59.00
21944;DHT22;11136;48.778;9.126;2023-06-10T12:34:37;30.40;58.60
21944;DHT22;11136;48.778;9.126;2023-06-10T12:37:10;30.70;57.90
21944;DHT22;11136;48.778;9.126;2023-06-10T12:39:40;30.90;57.70
21944;DHT22;11136;48.778;9.126;2023-06-10T12:42:06;31.30;56.80
21944;DHT22;11136;48.778;9.126;2023-06-10T12:44:38;31.50;56.30
21944;DHT22;11136;48.778;9.126;2023-06-10T12:47:08;31.70;55.60
21944;DHT22;11136;48.778;9.126;2023-06-10T12:49:35;31.50;55.10
21944;DHT22;11136;48.778;9.126;2023-06-10T12:52:01;31.40;55.70
21944;DHT22;11136;48.778;9.126;2023-06-10T12:54:26;31.10;55.60
21944;DHT22;11136;48.778;9.126;2023-06-10T12:56:52;30.90;55.30
21944;DHT22;11136;48.778;9.126;2023-06-10T12:59:18;30.70;55.30
21944;DHT22;11136;48.778;9.126;2023-06-10T13:01:49;30.70;56.30
21944;DHT22;11136;48.778;9.126;2023-06-10T13:04:16;31.00;56.80
21944;DHT22;11136;48.778;9.126;2023-06-10T13:06:41;31.20;56.00
21944;DHT22;11136;48.778;9.126;2023-06-10T13:09:07;31.70;55.90
21944;DHT22;11136;48.778;9.126;2023-06-10T13:11:33;32.10;55.50
21944;DHT22;11136;48.778;9.126;2023-06-10T13:13:58;32.70;55.00
21944;DHT22;11136;48.778;9.126;2023-06-10T13:16:24;32.90;54.00
21944;DHT22;11136;48.778;9.126;2023-06-10T13:18:52;33.00;53.00
21944;DHT22;11136;48.778;9.126;2023-06-10T13:21:17;33.00;52.70
21944;DHT22;11136;48.778;9.126;2023-06-10T13:23:44;32.90;52.20
21944;DHT22;11136;48.778;9.126;2023-06-10T13:26:11;32.70;51.90
21944;DHT22;11136;48.778;9.126;2023-06-10T13:28:37;32.50;52.40
21944;DHT22;11136;48.778;9.126;2023-06-10T13:31:03;32.40;52.80
21944;DHT22;11136;48.778;9.126;2023-06-10T13:33:29;32.20;52.50
21944;DHT22;11136;48.778;9.126;2023-06-10T13:35:55;32.10;52.80
21944;DHT22;11136;48.778;9.126;2023-06-10T13:38:20;32.00;52.60
21944;DHT22;11136;48.778;9.126;2023-06-10T13:40:46;32.10;53.10
21944;DHT22;11136;48.778;9.126;2023-06-10T13:43:11;32.40;52.90
21944;DHT22;11136;48.778;9.126;2023-06-10T13:45:38;32.80;52.80
21944;DHT22;11136;48.778;9.126;2023-06-10T13:48:04;33.20;52.80
21944;DHT22;11136;48.778;9.126;2023-06-10T13:50:31;33.60;51.80
21944;DHT22;11136;48.778;9.126;2023-06-10T13:52:56;33.90;50.80
21944;DHT22;11136;48.778;9.126;2023-06-10T13:55:22;33.90;49.90
21944;DHT22;11136;48.778;9.126;2023-06-10T13:57:49;33.70;49.70
21944;DHT22;11136;48.778;9.126;2023-06-10T14:00:16;33.50;49.70
21944;DHT22;11136;48.778;9.126;2023-06-10T14:02:41;33.20;49.40
21944;DHT22;11136;48.778;9.126;2023-06-10T14:05:07;32.80;49.50
21944;DHT22;11136;48.778;9.126;2023-06-10T14:07:34;32.50;50.00
21944;DHT22;11136;48.778;9.126;2023-06-10T14:09:59;32.30;50.40
21944;DHT22;11136;48.778;9.126;2023-06-10T14:12:25;31.90;50.80
21944;DHT22;11136;48.778;9.126;2023-06-10T14:14:51;31.70;51.30
21944;DHT22;11136;48.778;9.126;2023-06-10T14:17:16;31.50;51.50
21944;DHT22;11136;48.778;9.126;2023-06-10T14:19:42;31.30;51.80
21944;DHT22;11136;48.778;9.126;2023-06-10T14:22:07;31.40;52.40
21944;DHT22;11136;48.778;9.126;2023-06-10T14:24:33;31.60;52.50
21944;DHT22;11136;48.778;9.126;2023-06-10T14:27:00;31.80;52.20
21944;DHT22;11136;48.778;9.126;2023-06-10T14:29:26;32.10;51.90
21944;DHT22;11136;48.778;9.126;2023-06-10T14:31:54;32.40;51.30
21944;DHT22;11136;48.778;9.126;2023-06-10T14:34:20;32.60;50.90
21944;DHT22;11136;48.778;9.126;2023-06-10T14:36:45;32.90;50.70
21944;DHT22;11136;48.778;9.126;2023-06-10T14:39:11;33.10;50.20
21944;DHT22;11136;48.778;9.126;2023-06-10T14:41:37;33.30;50.20
21944;DHT22;11136;48.778;9.126;2023-06-10T14:44:02;33.40;49.80
21944;DHT22;11136;48.778;9.126;2023-06-10T14:46:28;33.60;49.30
21944;DHT22;11136;48.778;9.126;2023-06-10T14:48:53;33.50;49.10
21944;DHT22;11136;48.778;9.126;2023-06-10T14:51:19;33.40;49.60
21944;DHT22;11136;48.778;9.126;2023-06-10T14:53:46;33.20;49.90
21944;DHT22;11136;48.778;9.126;2023-06-10T14:56:12;33.20;50.00
21944;DHT22;11136;48.778;9.126;2023-06-10T14:58:38;33.30;50.10
21944;DHT22;11136;48.778;9.126;2023-06-10T15:01:04;33.40;50.10
21944;DHT22;11136;48.778;9.126;2023-06-10T15:03:29;33.30;49.80
21944;DHT22;11136;48.778;9.126;2023-06-10T15:05:55;33.20;49.80
21944;DHT22;11136;48.778;9.126;2023-06-10T15:08:21;33.20;49.80
21944;DHT22;11136;48.778;9.126;2023-06-10T15:10:46;33.30;50.10
21944;DHT22;11136;48.778;9.126;2023-06-10T15:13:13;33.40;49.70
21944;DHT22;11136;48.778;9.126;2023-06-10T15:15:39;33.40;49.60
21944;DHT22;11136;48.778;9.126;2023-06-10T15:18:05;33.60;49.40
21944;DHT22;11136;48.778;9.126;2023-06-10T15:20:30;33.60;49.00
21944;DHT22;11136;48.778;9.126;2023-06-10T15:22:56;33.70;49.10
21944;DHT22;11136;48.778;9.126;2023-06-10T15:25:22;33.80;49.20
21944;DHT22;11136;48.778;9.126;2023-06-10T15:27:47;33.80;49.20
21944;DHT22;11136;48.778;9.126;2023-06-10T15:30:13;33.80;49.10
21944;DHT22;11136;48.778;9.126;2023-06-10T15:32:39;33.90;49.30
21944;DHT22;11136;48.778;9.126;2023-06-10T15:35:04;33.90;49.20